createdAt,value
2019-02-17T00:00:30.270Z,2.20
2019-02-17T00:05:34.041Z,2.00
2019-02-17T00:10:37.843Z,2.00
2019-02-17T00:15:41.605Z,2.00
2019-02-17T00:20:45.412Z,2.00
2019-02-17T00:25:49.189Z,2.00
2019-02-17T00:30:53.007Z,2.00
2019-02-17T00:35:56.896Z,1.75
2019-02-17T00:41:01.738Z,1.25
2019-02-17T00:46:05.572Z,1.00
2019-02-17T00:51:09.379Z,1.00
2019-02-17T00:56:13.152Z,1.60
2019-02-17T01:01:17.034Z,2.00
2019-02-17T01:06:20.826Z,1.00
2019-02-17T01:11:24.671Z,1.00
2019-02-17T01:16:28.534Z,2.00
2019-02-17T01:21:32.351Z,1.00
2019-02-17T01:26:36.120Z,1.00
2019-02-17T01:31:39.890Z,1.75
2019-02-17T01:36:43.721Z,1.00
2019-02-17T01:41:47.514Z,1.00
2019-02-17T01:46:51.359Z,1.00
2019-02-17T01:51:55.193Z,1.25
2019-02-17T01:56:58.968Z,1.80
2019-02-17T02:02:02.759Z,1.00
2019-02-17T02:07:06.554Z,1.50
2019-02-17T02:12:10.333Z,1.00
2019-02-17T02:17:14.173Z,1.00
2019-02-17T02:22:17.975Z,1.20
2019-02-17T02:27:21.840Z,1.00
2019-02-17T02:32:25.629Z,1.00
2019-02-17T02:37:29.553Z,1.00
2019-02-17T02:42:33.332Z,1.00
2019-02-17T02:47:37.100Z,1.80
2019-02-17T02:52:41.109Z,1.00
2019-02-17T02:57:44.964Z,1.00
2019-02-17T03:02:49.235Z,0.60
2019-02-17T03:07:53.017Z,1.00
2019-02-17T03:12:56.812Z,1.00
2019-02-17T03:18:00.762Z,1.00
2019-02-17T03:23:04.678Z,1.40
2019-02-17T03:28:08.464Z,0.60
2019-02-17T03:33:12.326Z,1.00
2019-02-17T03:38:16.097Z,0.40
2019-02-17T03:43:20.073Z,1.00
2019-02-17T03:48:23.999Z,1.00
2019-02-17T03:53:27.822Z,1.00
2019-02-17T03:58:31.591Z,1.00
2019-02-17T04:03:35.385Z,0.80
2019-02-17T04:08:39.189Z,1.00
2019-02-17T04:13:42.996Z,1.00
2019-02-17T04:18:46.790Z,0.25
2019-02-17T04:23:50.609Z,1.00
2019-02-17T04:28:54.390Z,1.00
2019-02-17T04:33:58.175Z,0.00
2019-02-17T04:39:01.930Z,0.25
2019-02-17T04:44:05.707Z,1.00
2019-02-17T04:49:09.465Z,0.50
2019-02-17T04:54:13.289Z,1.00
2019-02-17T04:59:17.139Z,0.00
2019-02-17T05:04:20.974Z,1.00
2019-02-17T05:09:24.761Z,0.75
2019-02-17T05:14:28.583Z,0.40
2019-02-17T05:19:32.388Z,0.00
2019-02-17T05:24:36.133Z,1.00
2019-02-17T05:29:39.959Z,0.00
2019-02-17T05:34:43.721Z,0.00
2019-02-17T05:39:48.040Z,0.50
2019-02-17T05:44:51.830Z,0.25
2019-02-17T05:49:55.756Z,0.00
2019-02-17T05:54:59.591Z,1.00
2019-02-17T06:00:03.575Z,0.60
2019-02-17T06:05:07.898Z,1.00
2019-02-17T06:10:11.681Z,0.00
2019-02-17T06:15:15.457Z,0.50
2019-02-17T06:20:19.234Z,1.00
2019-02-17T06:25:23.071Z,0.20
2019-02-17T06:30:27.234Z,0.50
2019-02-17T06:35:31.014Z,0.00
2019-02-17T06:40:34.917Z,0.00
2019-02-17T06:45:38.694Z,1.00
2019-02-17T06:50:42.484Z,0.25
2019-02-17T06:56:16.391Z,0.00
2019-02-17T07:01:24.600Z,0.50
2019-02-17T07:06:29.014Z,0.00
2019-02-17T07:11:32.992Z,1.00
2019-02-17T07:16:36.800Z,0.25
2019-02-17T07:21:40.570Z,0.00
2019-02-17T07:26:44.402Z,0.00
2019-02-17T07:31:57.078Z,0.00
2019-02-17T07:37:00.855Z,0.00
2019-02-17T07:42:04.720Z,0.00
2019-02-17T07:47:08.588Z,0.00
2019-02-17T07:52:12.486Z,22.50
2019-02-17T07:57:16.355Z,23.00
2019-02-17T08:02:20.143Z,22.00
2019-02-17T08:07:23.963Z,17.80
2019-02-17T08:12:27.784Z,15.60
2019-02-17T08:17:31.580Z,16.00
2019-02-17T08:22:35.403Z,14.50
2019-02-17T08:27:39.269Z,16.20
2019-02-17T08:32:44.216Z,13.00
2019-02-17T08:37:48.265Z,12.40
2019-02-17T08:42:52.081Z,12.25
2019-02-17T08:47:55.975Z,12.25
2019-02-17T08:52:59.790Z,13.75
2019-02-17T08:58:03.586Z,13.75
2019-02-17T09:03:07.372Z,12.75
2019-02-17T09:08:11.146Z,13.60
2019-02-17T09:13:14.967Z,12.80
2019-02-17T09:18:18.865Z,13.50
2019-02-17T09:23:22.665Z,12.00
2019-02-17T09:28:26.730Z,12.50
2019-02-17T09:33:30.539Z,13.75
2019-02-17T09:38:34.450Z,14.20
2019-02-17T09:43:38.219Z,14.00
2019-02-17T09:48:42.018Z,13.00
2019-02-17T09:53:45.958Z,13.25
2019-02-17T09:58:49.763Z,13.00
2019-02-17T10:03:53.562Z,12.25
2019-02-17T10:08:57.361Z,11.00
2019-02-17T10:14:01.152Z,11.75
2019-02-17T10:19:05.000Z,11.25
2019-02-17T10:24:08.789Z,12.00
2019-02-17T10:29:12.581Z,9.00
2019-02-17T10:34:16.443Z,11.20
2019-02-17T10:39:20.247Z,10.50
2019-02-17T10:44:24.071Z,11.40
2019-02-17T10:49:27.949Z,11.00
2019-02-17T10:54:31.777Z,10.50
2019-02-17T10:59:35.566Z,9.75
2019-02-17T11:04:39.384Z,11.00
2019-02-17T11:09:43.244Z,8.80
2019-02-17T11:14:47.216Z,11.00
2019-02-17T11:19:51.005Z,7.75
2019-02-17T11:24:55.007Z,8.40
2019-02-17T11:29:58.812Z,9.00
2019-02-17T11:35:02.650Z,8.00
2019-02-17T11:40:08.509Z,10.80
2019-02-17T11:45:14.330Z,24.00
2019-02-17T11:50:18.148Z,24.00
2019-02-17T11:55:22.852Z,18.40
2019-02-17T12:00:26.869Z,16.75
2019-02-17T12:05:30.832Z,17.00
2019-02-17T12:10:34.630Z,13.50
2019-02-17T12:15:38.433Z,14.00
2019-02-17T12:20:57.258Z,12.75
2019-02-17T12:26:20.055Z,13.20
2019-02-17T12:31:27.198Z,12.00
2019-02-17T12:36:31.007Z,12.00
2019-02-17T12:41:34.790Z,12.00
2019-02-17T12:46:38.903Z,12.75
2019-02-17T12:51:42.755Z,11.00
2019-02-17T12:56:46.620Z,11.00
2019-02-17T13:01:50.432Z,12.00
2019-02-17T13:06:54.250Z,12.00
2019-02-17T13:11:58.074Z,11.50
2019-02-17T13:17:01.882Z,11.00
2019-02-17T13:22:05.774Z,10.00
2019-02-17T13:27:09.655Z,11.00
2019-02-17T13:32:13.491Z,10.00
2019-02-17T13:37:17.298Z,12.20
2019-02-17T13:42:21.864Z,9.75
2019-02-17T13:47:25.657Z,9.50
2019-02-17T13:52:31.925Z,10.00
2019-02-17T13:57:35.022Z,9.80
2019-02-17T14:02:38.879Z,8.60
2019-02-17T14:07:42.745Z,10.00
2019-02-17T14:12:46.584Z,10.00
2019-02-17T14:17:50.389Z,10.00
2019-02-17T14:22:54.827Z,8.75
2019-02-17T14:27:58.705Z,8.00
2019-02-17T14:33:02.572Z,8.75
2019-02-17T14:38:06.394Z,10.00
2019-02-17T14:43:10.194Z,12.00
2019-02-17T14:48:13.998Z,10.00
2019-02-17T14:53:17.815Z,9.00
2019-02-17T14:58:21.617Z,8.80
2019-02-17T15:03:25.426Z,9.25
2019-02-17T15:08:29.220Z,9.80
2019-02-17T15:13:33.110Z,9.00
2019-02-17T15:18:36.934Z,9.00
2019-02-17T15:23:40.893Z,9.50
2019-02-17T15:28:51.222Z,11.50
2019-02-17T15:33:50.208Z,11.40
2019-02-17T15:38:54.008Z,9.00
2019-02-17T15:43:57.846Z,10.00
2019-02-17T15:49:01.643Z,9.50
2019-02-17T15:54:05.473Z,10.00
2019-02-17T15:59:09.260Z,9.40
2019-02-17T16:04:13.085Z,9.75
2019-02-17T16:09:16.902Z,10.50
2019-02-17T16:14:20.700Z,10.00
2019-02-17T16:19:24.511Z,12.00
2019-02-17T16:24:28.313Z,10.00
2019-02-17T16:29:32.106Z,9.60
2019-02-17T16:34:38.432Z,11.40
2019-02-17T16:39:41.477Z,10.60
2019-02-17T16:44:45.299Z,10.00
2019-02-17T16:49:49.108Z,9.00
2019-02-17T16:54:52.941Z,9.25
2019-02-17T16:59:56.749Z,9.40
2019-02-17T17:05:00.573Z,10.00
2019-02-17T17:10:04.559Z,10.00
2019-02-17T17:15:08.375Z,10.40
2019-02-17T17:20:12.197Z,9.00
2019-02-17T17:25:16.036Z,10.80
2019-02-17T17:30:19.867Z,10.40
2019-02-17T17:35:23.668Z,10.75
2019-02-17T17:40:27.506Z,10.50
2019-02-17T17:45:31.304Z,11.00
2019-02-17T17:50:35.163Z,11.80
2019-02-17T17:55:38.986Z,14.25
2019-02-17T18:00:43.595Z,12.50
2019-02-17T18:05:47.712Z,12.50
2019-02-17T18:10:51.542Z,13.50
2019-02-17T18:15:55.386Z,14.25
2019-02-17T18:20:59.198Z,14.75
2019-02-17T18:26:03.018Z,14.40
2019-02-17T18:31:06.812Z,12.00
2019-02-17T18:36:10.656Z,13.50
2019-02-17T18:41:14.458Z,14.75
2019-02-17T18:46:18.293Z,14.50
2019-02-17T18:51:22.198Z,16.00
2019-02-17T18:56:26.051Z,16.00
2019-02-17T19:01:29.909Z,15.60
2019-02-17T19:06:33.714Z,15.25
2019-02-17T19:11:37.535Z,12.00
2019-02-17T19:16:41.341Z,15.00
2019-02-17T19:21:45.174Z,12.00
2019-02-17T19:26:48.967Z,14.00
2019-02-17T19:31:52.763Z,11.80
2019-02-17T19:36:56.562Z,12.50
2019-02-17T19:42:00.368Z,12.00
2019-02-17T19:47:04.161Z,11.60
2019-02-17T19:52:07.974Z,12.00
2019-02-17T19:57:11.773Z,10.50
2019-02-17T20:02:16.756Z,11.75
2019-02-17T20:07:20.562Z,11.25
2019-02-17T20:12:24.507Z,11.20
2019-02-17T20:17:30.252Z,9.50
2019-02-17T20:22:33.918Z,10.75
2019-02-17T20:27:37.709Z,9.75
2019-02-17T20:32:41.517Z,10.50
2019-02-17T20:37:45.324Z,10.00
2019-02-17T20:42:49.143Z,10.20
2019-02-17T20:47:52.961Z,9.75
2019-02-17T20:52:56.766Z,10.00
2019-02-17T20:58:00.571Z,10.25
2019-02-17T21:03:04.365Z,10.80
2019-02-17T21:08:08.162Z,9.50
2019-02-17T21:13:11.969Z,10.00
2019-02-17T21:18:15.794Z,10.00
2019-02-17T21:23:19.634Z,8.50
2019-02-17T21:28:23.436Z,9.00
2019-02-17T21:33:27.228Z,8.50
2019-02-17T21:38:31.052Z,8.00
2019-02-17T21:43:34.880Z,9.50
2019-02-17T21:48:38.690Z,9.00
2019-02-17T21:53:42.494Z,8.25
2019-02-17T21:58:46.295Z,9.00
2019-02-17T22:03:50.108Z,9.00
2019-02-17T22:08:53.916Z,7.50
2019-02-17T22:13:57.709Z,8.50
2019-02-17T22:19:01.502Z,8.00
2019-02-17T22:24:05.337Z,8.80
2019-02-17T22:29:09.126Z,8.60
2019-02-17T22:34:12.936Z,7.80
2019-02-17T22:39:16.774Z,7.75
2019-02-17T22:44:20.603Z,9.00
2019-02-17T22:49:24.425Z,8.00
2019-02-17T22:54:28.241Z,8.00
2019-02-17T22:59:32.040Z,7.50
2019-02-17T23:04:35.832Z,8.00
2019-02-17T23:09:39.635Z,6.80
2019-02-17T23:14:43.446Z,8.25
2019-02-17T23:19:47.261Z,8.60
2019-02-17T23:24:51.067Z,7.40
2019-02-17T23:29:54.869Z,7.75
2019-02-17T23:34:58.674Z,7.00
2019-02-17T23:40:02.564Z,7.00
2019-02-17T23:45:07.501Z,6.60
2019-02-17T23:50:11.597Z,5.40
2019-02-17T23:55:15.398Z,6.80
